createdAt,value
2018-08-16T00:00:17.850Z,19.06
2018-08-16T00:02:47.098Z,19.01
2018-08-16T00:05:16.210Z,19.10
2018-08-16T00:07:45.992Z,19.11
2018-08-16T00:10:16.032Z,19.05
2018-08-16T00:12:46.923Z,19.04
2018-08-16T00:15:17.646Z,18.99
2018-08-16T00:17:46.713Z,18.97
2018-08-16T00:20:16.463Z,18.96
2018-08-16T00:22:45.711Z,18.93
2018-08-16T00:25:15.931Z,18.92
2018-08-16T00:27:46.016Z,18.90
2018-08-16T00:30:18.742Z,18.84
2018-08-16T00:32:49.006Z,18.78
2018-08-16T00:35:19.196Z,18.85
2018-08-16T00:37:49.162Z,18.82
2018-08-16T00:40:19.399Z,18.80
2018-08-16T00:42:48.415Z,18.80
2018-08-16T00:45:17.611Z,18.83
2018-08-16T00:47:46.959Z,18.80
2018-08-16T00:50:16.789Z,18.77
2018-08-16T00:52:45.824Z,18.75
2018-08-16T00:55:15.679Z,18.66
2018-08-16T00:57:44.461Z,18.63
2018-08-16T01:00:15.618Z,18.54
2018-08-16T01:02:45.315Z,18.50
2018-08-16T01:05:14.606Z,18.47
2018-08-16T01:07:43.721Z,18.48
2018-08-16T01:10:14.338Z,18.46
2018-08-16T01:12:44.574Z,18.44
2018-08-16T01:15:14.854Z,18.50
2018-08-16T01:17:44.586Z,18.51
2018-08-16T01:20:13.920Z,18.48
2018-08-16T01:22:43.106Z,18.49
2018-08-16T01:25:12.491Z,18.52
2018-08-16T01:27:41.553Z,18.54
2018-08-16T01:30:11.630Z,18.55
2018-08-16T01:32:40.714Z,18.58
2018-08-16T01:35:10.669Z,18.62
2018-08-16T01:37:40.763Z,18.64
2018-08-16T01:40:10.581Z,18.61
2018-08-16T01:42:40.203Z,18.44
2018-08-16T01:45:10.383Z,18.36
2018-08-16T01:47:40.089Z,18.31
2018-08-16T01:50:09.698Z,18.24
2018-08-16T01:52:38.982Z,18.21
2018-08-16T01:55:08.594Z,18.23
2018-08-16T01:57:38.427Z,18.11
2018-08-16T02:00:09.474Z,18.16
2018-08-16T02:02:38.720Z,18.17
2018-08-16T02:05:08.019Z,18.18
2018-08-16T02:07:37.635Z,18.25
2018-08-16T02:10:07.592Z,18.25
2018-08-16T02:12:36.849Z,18.17
2018-08-16T02:15:08.933Z,18.10
2018-08-16T02:17:37.890Z,18.07
2018-08-16T02:20:08.331Z,18.12
2018-08-16T02:22:37.854Z,18.14
2018-08-16T02:25:07.124Z,18.19
2018-08-16T02:27:36.238Z,18.19
2018-08-16T02:30:06.378Z,18.16
2018-08-16T02:32:35.034Z,18.05
2018-08-16T02:35:03.971Z,17.95
2018-08-16T02:37:33.099Z,17.90
2018-08-16T02:40:02.038Z,17.85
2018-08-16T02:42:31.117Z,17.68
2018-08-16T02:45:01.067Z,17.66
2018-08-16T02:47:30.019Z,17.58
2018-08-16T02:49:59.139Z,17.54
2018-08-16T02:52:28.785Z,17.62
2018-08-16T02:54:57.627Z,17.60
2018-08-16T02:57:26.527Z,17.67
2018-08-16T02:59:55.849Z,17.60
2018-08-16T03:02:25.539Z,17.61
2018-08-16T03:04:55.323Z,17.51
2018-08-16T03:07:24.236Z,17.50
2018-08-16T03:09:53.252Z,17.48
2018-08-16T03:12:22.767Z,17.34
2018-08-16T03:14:51.607Z,17.11
2018-08-16T03:17:20.824Z,17.09
2018-08-16T03:19:50.195Z,17.03
2018-08-16T03:22:20.539Z,16.98
2018-08-16T03:24:49.246Z,16.95
2018-08-16T03:27:19.605Z,16.93
2018-08-16T03:29:48.678Z,16.93
2018-08-16T03:32:18.479Z,16.94
2018-08-16T03:34:47.775Z,16.88
2018-08-16T03:37:17.684Z,16.82
2018-08-16T03:39:46.694Z,16.78
2018-08-16T03:42:20.422Z,16.73
2018-08-16T03:44:49.620Z,16.75
2018-08-16T03:47:19.760Z,16.77
2018-08-16T03:49:48.715Z,16.78
2018-08-16T03:52:18.155Z,16.85
2018-08-16T03:54:48.163Z,17.05
2018-08-16T03:57:17.870Z,17.50
2018-08-16T03:59:47.696Z,17.98
2018-08-16T04:02:16.335Z,18.44
2018-08-16T04:04:45.226Z,18.65
2018-08-16T04:07:14.230Z,18.60
2018-08-16T04:09:43.160Z,18.60
2018-08-16T04:12:11.991Z,18.97
2018-08-16T04:14:41.194Z,19.69
2018-08-16T04:17:10.786Z,20.28
2018-08-16T04:19:39.995Z,20.70
2018-08-16T04:22:09.062Z,20.80
2018-08-16T04:24:39.075Z,20.87
2018-08-16T04:27:08.803Z,20.62
2018-08-16T04:29:37.910Z,20.59
2018-08-16T04:32:07.866Z,20.49
2018-08-16T04:34:36.838Z,20.40
2018-08-16T04:37:05.732Z,20.35
2018-08-16T04:39:35.162Z,20.39
2018-08-16T04:42:04.986Z,20.25
2018-08-16T04:44:34.454Z,20.36
2018-08-16T04:47:03.922Z,20.47
2018-08-16T04:49:33.163Z,21.16
2018-08-16T04:52:02.204Z,22.24
2018-08-16T04:54:31.107Z,22.83
2018-08-16T04:57:00.450Z,23.84
2018-08-16T04:59:29.484Z,25.12
2018-08-16T05:01:58.762Z,25.58
2018-08-16T05:04:27.832Z,26.19
2018-08-16T05:06:56.733Z,27.25
2018-08-16T05:09:25.887Z,27.47
2018-08-16T05:11:54.831Z,28.05
2018-08-16T05:14:24.430Z,28.26
2018-08-16T05:16:53.491Z,28.26
2018-08-16T05:19:22.750Z,29.12
2018-08-16T05:21:51.712Z,28.77
2018-08-16T05:24:22.047Z,29.72
2018-08-16T05:26:51.556Z,30.55
2018-08-16T05:29:20.531Z,31.09
2018-08-16T05:31:49.853Z,31.56
2018-08-16T05:34:18.543Z,31.65
2018-08-16T05:36:47.303Z,30.26
2018-08-16T05:39:16.532Z,28.89
2018-08-16T05:41:45.527Z,27.95
2018-08-16T05:44:14.716Z,27.89
2018-08-16T05:46:43.920Z,27.34
2018-08-16T05:49:13.632Z,26.93
2018-08-16T05:51:42.751Z,27.17
2018-08-16T05:54:11.755Z,28.56
2018-08-16T05:56:41.342Z,28.73
2018-08-16T05:59:10.545Z,29.37
2018-08-16T06:01:40.022Z,29.66
2018-08-16T06:04:09.238Z,29.29
2018-08-16T06:06:38.340Z,30.06
2018-08-16T06:09:10.311Z,30.84
2018-08-16T06:11:39.394Z,31.69
2018-08-16T06:14:09.551Z,31.53
2018-08-16T06:16:39.102Z,30.56
2018-08-16T06:19:08.739Z,31.36
2018-08-16T06:21:37.943Z,31.27
2018-08-16T06:24:08.328Z,30.17
2018-08-16T06:26:38.206Z,30.40
2018-08-16T06:29:08.009Z,29.77
2018-08-16T06:31:37.009Z,30.72
2018-08-16T06:34:06.840Z,32.56
2018-08-16T06:36:35.776Z,33.18
2018-08-16T06:39:06.831Z,33.15
2018-08-16T06:41:35.920Z,32.20
2018-08-16T06:44:04.855Z,32.58
2018-08-16T06:46:33.842Z,31.93
2018-08-16T06:49:02.894Z,31.60
2018-08-16T06:51:32.296Z,31.33
2018-08-16T06:54:01.443Z,32.13
2018-08-16T06:56:30.505Z,32.43
2018-08-16T06:58:59.698Z,32.53
2018-08-16T07:01:29.129Z,32.97
2018-08-16T07:03:58.566Z,32.92
2018-08-16T07:06:27.370Z,33.02
2018-08-16T07:08:56.709Z,32.98
2018-08-16T07:11:27.046Z,33.49
2018-08-16T07:13:56.049Z,34.29
2018-08-16T07:16:25.441Z,33.70
2018-08-16T07:18:55.751Z,32.86
2018-08-16T07:21:24.754Z,33.43
2018-08-16T07:23:54.757Z,33.16
2018-08-16T07:26:23.871Z,32.71
2018-08-16T07:28:52.742Z,32.40
2018-08-16T07:31:22.191Z,32.89
2018-08-16T07:33:51.211Z,32.25
2018-08-16T07:36:20.434Z,32.23
2018-08-16T07:38:49.218Z,32.60
2018-08-16T07:41:18.559Z,33.03
2018-08-16T07:43:47.843Z,33.45
2018-08-16T07:46:17.350Z,33.69
2018-08-16T07:48:46.141Z,32.85
2018-08-16T07:51:15.132Z,33.28
2018-08-16T07:53:44.738Z,32.68
2018-08-16T07:56:13.845Z,32.54
2018-08-16T07:58:43.143Z,32.77
2018-08-16T08:01:13.116Z,33.10
2018-08-16T08:03:42.067Z,33.52
2018-08-16T08:06:11.126Z,34.30
2018-08-16T08:08:40.285Z,33.47
2018-08-16T08:11:10.246Z,33.50
2018-08-16T08:13:39.360Z,33.61
2018-08-16T08:16:08.663Z,33.82
2018-08-16T08:18:37.754Z,33.84
2018-08-16T08:21:06.904Z,34.45
2018-08-16T08:23:35.955Z,33.90
2018-08-16T08:26:05.607Z,33.72
2018-08-16T08:28:34.634Z,32.69
2018-08-16T08:31:04.179Z,32.83
2018-08-16T08:33:33.047Z,32.96
2018-08-16T08:36:13.230Z,32.78
2018-08-16T08:38:42.160Z,33.16
2018-08-16T08:41:11.030Z,33.21
2018-08-16T08:43:51.068Z,33.09
2018-08-16T08:46:21.677Z,33.34
2018-08-16T08:48:50.846Z,32.59
2018-08-16T08:51:20.986Z,32.31
2018-08-16T08:54:09.550Z,31.52
2018-08-16T08:56:49.616Z,31.89
2018-08-16T08:59:18.498Z,31.51
2018-08-16T09:01:48.606Z,30.38
2018-08-16T09:04:17.817Z,29.34
2018-08-16T09:06:46.731Z,28.87
2018-08-16T09:09:15.610Z,29.15
2018-08-16T09:11:55.774Z,29.56
2018-08-16T09:14:35.609Z,29.50
2018-08-16T09:17:04.779Z,29.36
2018-08-16T09:19:33.981Z,29.56
2018-08-16T09:22:03.705Z,28.83
2018-08-16T09:24:32.949Z,28.94
2018-08-16T09:27:02.823Z,29.12
2018-08-16T09:29:58.559Z,28.40
2018-08-16T09:32:38.406Z,28.64
2018-08-16T09:35:07.898Z,28.31
2018-08-16T09:37:37.109Z,27.89
2018-08-16T09:40:07.027Z,27.94
2018-08-16T09:42:36.466Z,27.93
2018-08-16T09:45:16.313Z,27.99
2018-08-16T09:47:56.559Z,28.51
2018-08-16T09:50:25.545Z,28.83
2018-08-16T09:52:54.420Z,28.60
2018-08-16T09:55:23.961Z,28.75
2018-08-16T09:57:53.249Z,29.04
2018-08-16T10:00:26.790Z,28.67
2018-08-16T10:02:55.845Z,29.67
2018-08-16T10:05:25.539Z,29.82
2018-08-16T10:07:55.063Z,29.18
2018-08-16T10:10:24.759Z,28.77
2018-08-16T10:12:54.075Z,29.04
2018-08-16T10:15:23.707Z,28.97
2018-08-16T10:17:52.752Z,29.76
2018-08-16T10:20:21.820Z,30.10
2018-08-16T10:22:51.583Z,29.76
2018-08-16T10:25:20.682Z,29.00
2018-08-16T10:27:50.579Z,28.32
2018-08-16T10:30:19.915Z,28.25
2018-08-16T10:32:49.909Z,28.40
2018-08-16T10:35:21.183Z,28.41
2018-08-16T10:37:50.144Z,28.34
2018-08-16T10:40:19.647Z,28.65
2018-08-16T10:42:48.762Z,28.97
2018-08-16T10:45:18.409Z,28.66
2018-08-16T10:47:47.458Z,28.10
2018-08-16T10:50:16.583Z,27.87
2018-08-16T10:52:45.580Z,27.98
2018-08-16T10:55:14.532Z,28.11
2018-08-16T10:57:43.563Z,28.48
2018-08-16T11:00:13.428Z,28.71
2018-08-16T11:02:42.949Z,28.84
2018-08-16T11:05:12.708Z,29.23
2018-08-16T11:07:41.668Z,29.37
2018-08-16T11:10:10.819Z,29.29
2018-08-16T11:12:40.124Z,29.40
2018-08-16T11:15:09.478Z,29.84
2018-08-16T11:17:38.631Z,29.12
2018-08-16T11:20:07.840Z,28.74
2018-08-16T11:22:37.274Z,28.62
2018-08-16T11:25:06.375Z,28.59
2018-08-16T11:27:36.388Z,28.53
2018-08-16T11:30:06.439Z,28.64
2018-08-16T11:32:35.561Z,28.45
2018-08-16T11:35:05.310Z,28.44
2018-08-16T11:37:34.059Z,27.94
2018-08-16T11:40:03.382Z,28.09
2018-08-16T11:42:32.564Z,28.33
2018-08-16T11:45:01.671Z,28.45
2018-08-16T11:47:30.386Z,28.12
2018-08-16T11:49:59.711Z,28.09
2018-08-16T11:52:29.284Z,27.78
2018-08-16T11:54:58.807Z,27.80
2018-08-16T11:57:28.015Z,28.00
2018-08-16T11:59:57.226Z,27.92
2018-08-16T12:02:26.727Z,27.74
2018-08-16T12:04:55.925Z,28.07
2018-08-16T12:07:25.507Z,28.04
2018-08-16T12:09:54.932Z,28.24
2018-08-16T12:12:24.640Z,28.05
2018-08-16T12:14:53.595Z,28.27
2018-08-16T12:17:22.993Z,28.20
2018-08-16T12:19:51.920Z,27.93
2018-08-16T12:22:21.076Z,27.88
2018-08-16T12:24:51.483Z,27.65
2018-08-16T12:27:20.751Z,27.52
2018-08-16T12:29:49.543Z,27.37
2018-08-16T12:32:18.959Z,27.33
2018-08-16T12:34:48.048Z,27.37
2018-08-16T12:37:17.139Z,27.45
2018-08-16T12:39:46.683Z,27.67
2018-08-16T12:42:15.656Z,27.80
2018-08-16T12:44:44.738Z,27.96
2018-08-16T12:47:14.033Z,27.91
2018-08-16T12:49:43.348Z,27.61
2018-08-16T12:52:12.126Z,27.85
2018-08-16T12:54:41.331Z,27.71
2018-08-16T12:57:10.332Z,27.91
2018-08-16T12:59:39.624Z,27.88
2018-08-16T13:02:09.468Z,27.99
2018-08-16T13:04:38.542Z,28.14
2018-08-16T13:07:07.892Z,28.06
2018-08-16T13:09:37.151Z,28.09
2018-08-16T13:12:06.333Z,28.11
2018-08-16T13:14:35.538Z,28.17
2018-08-16T13:17:05.081Z,28.06
2018-08-16T13:19:34.115Z,28.34
2018-08-16T13:22:02.956Z,28.54
2018-08-16T13:24:32.333Z,28.21
2018-08-16T13:27:02.061Z,28.04
2018-08-16T13:29:31.343Z,27.68
2018-08-16T13:32:02.317Z,27.65
2018-08-16T13:34:31.186Z,27.60
2018-08-16T13:37:00.517Z,27.73
2018-08-16T13:39:29.547Z,27.78
2018-08-16T13:41:58.354Z,27.72
2018-08-16T13:44:27.131Z,27.71
2018-08-16T13:46:56.055Z,27.66
2018-08-16T13:49:24.827Z,27.44
2018-08-16T13:51:53.627Z,27.43
2018-08-16T13:54:22.617Z,27.38
2018-08-16T13:56:51.416Z,27.35
2018-08-16T13:59:20.274Z,27.47
2018-08-16T14:01:49.492Z,27.60
2018-08-16T14:04:18.151Z,27.74
2018-08-16T14:06:46.978Z,27.82
2018-08-16T14:09:16.190Z,27.74
2018-08-16T14:11:44.971Z,27.65
2018-08-16T14:14:13.706Z,27.47
2018-08-16T14:16:42.588Z,27.54
2018-08-16T14:19:11.346Z,27.51
2018-08-16T14:21:40.118Z,27.41
2018-08-16T14:24:09.348Z,27.55
2018-08-16T14:26:38.119Z,27.74
2018-08-16T14:29:06.895Z,27.73
2018-08-16T14:31:35.995Z,27.72
2018-08-16T14:34:04.992Z,27.70
2018-08-16T14:36:33.815Z,27.78
2018-08-16T14:39:02.790Z,27.77
2018-08-16T14:41:31.579Z,27.83
2018-08-16T14:44:00.454Z,27.76
2018-08-16T14:46:29.551Z,27.77
2018-08-16T14:48:58.319Z,27.53
2018-08-16T14:51:27.086Z,27.40
2018-08-16T14:53:56.399Z,27.28
2018-08-16T14:56:25.099Z,27.26
2018-08-16T14:58:53.784Z,27.22
2018-08-16T15:01:22.922Z,27.16
2018-08-16T15:03:51.697Z,27.08
2018-08-16T15:06:20.592Z,27.18
2018-08-16T15:08:49.995Z,27.01
2018-08-16T15:11:35.867Z,26.98
2018-08-16T15:14:05.116Z,26.98
2018-08-16T15:16:33.839Z,27.01
2018-08-16T15:19:02.671Z,27.09
2018-08-16T15:21:31.993Z,27.14
2018-08-16T15:24:00.775Z,27.21
2018-08-16T15:26:29.542Z,27.06
2018-08-16T15:28:58.745Z,27.15
2018-08-16T15:31:27.584Z,27.16
2018-08-16T15:33:56.314Z,27.16
2018-08-16T15:36:25.461Z,27.20
2018-08-16T15:38:54.367Z,27.16
2018-08-16T15:41:23.201Z,27.07
2018-08-16T15:43:52.324Z,27.04
2018-08-16T15:46:21.190Z,27.06
2018-08-16T15:48:49.893Z,27.13
2018-08-16T15:51:23.586Z,27.10
2018-08-16T15:53:52.443Z,26.96
2018-08-16T15:56:21.062Z,26.91
2018-08-16T15:58:50.365Z,26.70
2018-08-16T16:01:19.149Z,26.76
2018-08-16T16:03:47.952Z,26.67
2018-08-16T16:06:16.756Z,26.62
2018-08-16T16:08:45.628Z,26.62
2018-08-16T16:11:14.326Z,26.51
2018-08-16T16:13:43.523Z,26.55
2018-08-16T16:16:12.231Z,26.56
2018-08-16T16:18:40.992Z,26.52
2018-08-16T16:21:09.778Z,26.42
2018-08-16T16:23:38.572Z,26.45
2018-08-16T16:26:07.260Z,26.40
2018-08-16T16:28:36.419Z,26.39
2018-08-16T16:31:05.632Z,26.37
2018-08-16T16:33:34.441Z,26.25
2018-08-16T16:36:03.456Z,26.34
2018-08-16T16:38:32.343Z,26.32
2018-08-16T16:41:01.193Z,26.20
2018-08-16T16:43:30.447Z,26.18
2018-08-16T16:45:59.204Z,26.16
2018-08-16T16:48:27.962Z,26.06
2018-08-16T16:50:57.194Z,26.02
2018-08-16T16:53:25.879Z,25.99
2018-08-16T16:55:54.515Z,25.99
2018-08-16T16:58:23.254Z,25.96
2018-08-16T17:01:00.183Z,25.85
2018-08-16T17:03:29.035Z,25.77
2018-08-16T17:05:57.763Z,25.74
2018-08-16T17:08:26.520Z,25.68
2018-08-16T17:10:55.829Z,25.59
2018-08-16T17:13:24.538Z,25.59
2018-08-16T17:15:53.243Z,25.47
2018-08-16T17:18:22.083Z,25.47
2018-08-16T17:21:01.046Z,25.44
2018-08-16T17:23:30.114Z,25.33
2018-08-16T17:25:58.912Z,25.27
2018-08-16T17:28:27.682Z,25.23
2018-08-16T17:30:56.969Z,25.21
2018-08-16T17:33:25.726Z,25.16
2018-08-16T17:35:54.564Z,25.10
2018-08-16T17:38:23.219Z,25.04
2018-08-16T17:40:52.043Z,24.97
2018-08-16T17:43:20.804Z,24.90
2018-08-16T17:45:50.134Z,24.83
2018-08-16T17:48:18.892Z,24.75
2018-08-16T17:56:53.002Z,24.59
2018-08-16T17:59:21.885Z,24.56
2018-08-16T18:01:50.669Z,24.56
2018-08-16T18:04:19.448Z,24.57
2018-08-16T18:06:48.341Z,24.55
2018-08-16T18:09:17.044Z,24.62
2018-08-16T18:11:46.108Z,24.57
2018-08-16T18:14:14.888Z,24.53
2018-08-16T18:16:43.732Z,24.50
2018-08-16T18:19:13.004Z,24.51
2018-08-16T18:21:41.759Z,24.51
2018-08-16T18:24:10.591Z,24.43
2018-08-16T18:26:39.988Z,24.33
2018-08-16T18:29:08.837Z,24.35
2018-08-16T18:31:37.752Z,24.31
2018-08-16T18:34:07.276Z,24.31
2018-08-16T18:36:36.149Z,24.27
2018-08-16T18:39:06.580Z,24.28
2018-08-16T18:41:35.893Z,24.23
2018-08-16T18:44:04.931Z,24.16
2018-08-16T18:46:34.019Z,24.09
2018-08-16T18:49:03.326Z,24.06
2018-08-16T18:51:32.900Z,24.01
2018-08-16T18:54:01.787Z,23.95
2018-08-16T18:56:49.675Z,23.92
2018-08-16T18:59:18.481Z,23.86
2018-08-16T19:01:47.184Z,23.86
2018-08-16T19:04:16.309Z,23.86
2018-08-16T19:06:45.231Z,23.86
2018-08-16T19:09:14.090Z,23.84
2018-08-16T19:11:43.124Z,23.81
2018-08-16T19:14:11.981Z,23.79
2018-08-16T19:16:40.882Z,23.84
2018-08-16T19:19:09.807Z,23.81
2018-08-16T19:21:38.858Z,23.78
2018-08-16T19:24:07.702Z,23.84
2018-08-16T19:26:36.882Z,23.84
2018-08-16T19:29:05.579Z,23.79
2018-08-16T19:31:34.358Z,23.74
2018-08-16T19:34:03.469Z,23.70
2018-08-16T19:36:32.139Z,23.63
2018-08-16T19:39:00.922Z,23.50
2018-08-16T19:41:30.659Z,23.44
2018-08-16T19:43:59.427Z,23.35
2018-08-16T19:46:28.144Z,23.31
2018-08-16T19:48:57.313Z,23.31
2018-08-16T19:51:26.027Z,23.29
2018-08-16T19:53:54.782Z,23.30
2018-08-16T19:56:24.096Z,23.23
2018-08-16T19:58:52.868Z,23.26
2018-08-16T20:01:21.754Z,23.20
2018-08-16T20:03:50.424Z,23.20
2018-08-16T20:06:19.148Z,23.15
2018-08-16T20:08:47.980Z,23.11
2018-08-16T20:11:17.080Z,23.06
2018-08-16T20:13:45.842Z,23.00
2018-08-16T20:16:14.702Z,22.93
2018-08-16T20:18:44.027Z,22.90
2018-08-16T20:21:25.111Z,22.94
2018-08-16T20:23:54.576Z,22.95
2018-08-16T20:26:23.463Z,22.94
2018-08-16T20:28:52.358Z,22.88
2018-08-16T20:31:21.478Z,22.85
2018-08-16T20:33:50.289Z,22.84
2018-08-16T20:36:19.009Z,22.84
2018-08-16T20:38:48.477Z,22.85
2018-08-16T20:41:17.150Z,22.74
2018-08-16T20:43:45.950Z,22.68
2018-08-16T20:46:14.987Z,22.72
2018-08-16T20:48:43.700Z,22.66
2018-08-16T20:51:12.524Z,22.64
2018-08-16T20:53:41.273Z,22.62
2018-08-16T20:56:09.966Z,22.54
2018-08-16T20:58:38.742Z,22.44
2018-08-16T21:01:07.977Z,22.41
2018-08-16T21:03:36.675Z,22.31
2018-08-16T21:06:06.582Z,22.25
2018-08-16T21:08:35.762Z,22.11
2018-08-16T21:11:04.639Z,22.06
2018-08-16T21:13:33.433Z,22.06
2018-08-16T21:16:02.878Z,22.02
2018-08-16T21:18:31.680Z,21.96
2018-08-16T21:21:00.520Z,21.87
2018-08-16T21:23:29.663Z,21.79
2018-08-16T21:25:58.374Z,21.68
2018-08-16T21:28:27.095Z,21.59
2018-08-16T21:30:56.206Z,21.45
2018-08-16T21:33:24.920Z,21.51
2018-08-16T21:35:53.693Z,21.49
2018-08-16T21:38:23.005Z,21.48
2018-08-16T21:40:51.727Z,21.42
2018-08-16T21:43:20.491Z,21.41
2018-08-16T21:45:50.063Z,21.40
2018-08-16T21:48:18.899Z,21.33
2018-08-16T21:50:47.615Z,21.31
2018-08-16T21:53:16.821Z,21.21
2018-08-16T21:55:45.654Z,21.21
2018-08-16T21:58:14.353Z,21.30
2018-08-16T22:00:49.699Z,21.19
2018-08-16T22:03:20.812Z,21.23
2018-08-16T22:05:56.789Z,21.22
2018-08-16T22:08:27.443Z,21.18
2018-08-16T22:10:56.293Z,21.11
2018-08-16T22:13:25.399Z,21.02
2018-08-16T22:15:54.313Z,20.93
2018-08-16T22:18:23.141Z,20.96
2018-08-16T22:20:52.050Z,20.93
2018-08-16T22:23:20.948Z,20.87
2018-08-16T22:25:49.819Z,20.75
2018-08-16T22:28:19.010Z,20.88
2018-08-16T22:30:47.848Z,20.76
2018-08-16T22:33:16.712Z,20.62
2018-08-16T22:35:45.853Z,20.61
2018-08-16T22:38:14.993Z,20.57
2018-08-16T22:40:43.785Z,20.57
2018-08-16T22:43:12.819Z,20.45
2018-08-16T22:45:41.557Z,20.45
2018-08-16T22:48:10.282Z,20.46
2018-08-16T22:50:39.482Z,20.56
2018-08-16T22:53:08.758Z,20.51
2018-08-16T22:55:37.607Z,20.45
2018-08-16T22:58:07.192Z,20.46
2018-08-16T23:00:42.303Z,20.43
2018-08-16T23:03:11.535Z,20.53
2018-08-16T23:05:40.809Z,20.62
2018-08-16T23:08:09.992Z,20.71
2018-08-16T23:10:39.236Z,20.70
2018-08-16T23:13:08.083Z,20.76
2018-08-16T23:15:36.955Z,20.70
2018-08-16T23:18:06.218Z,20.60
2018-08-16T23:20:35.093Z,20.60
2018-08-16T23:23:03.915Z,20.58
2018-08-16T23:25:33.147Z,20.58
2018-08-16T23:28:01.963Z,20.51
2018-08-16T23:30:31.887Z,20.55
2018-08-16T23:33:00.998Z,20.52
2018-08-16T23:35:29.906Z,20.51
2018-08-16T23:37:58.742Z,20.45
2018-08-16T23:40:28.189Z,20.48
2018-08-16T23:42:57.446Z,20.41
2018-08-16T23:45:26.282Z,20.40
2018-08-16T23:48:06.475Z,20.46
2018-08-16T23:50:43.190Z,20.46
2018-08-16T23:53:12.039Z,20.38
2018-08-16T23:55:40.862Z,20.20
2018-08-16T23:58:09.699Z,19.98
